createdAt,value
2018-03-11T00:01:58.982Z,9.35
2018-03-11T00:04:26.594Z,9.35
2018-03-11T00:06:54.158Z,9.35
2018-03-11T00:09:21.722Z,9.36
2018-03-11T00:11:49.290Z,9.40
2018-03-11T00:14:16.846Z,9.44
2018-03-11T00:16:44.879Z,9.45
2018-03-11T00:19:12.502Z,9.42
2018-03-11T00:21:40.062Z,9.45
2018-03-11T00:24:07.649Z,9.46
2018-03-11T00:26:35.282Z,9.45
2018-03-11T00:29:02.890Z,9.41
2018-03-11T00:31:30.510Z,9.35
2018-03-11T00:33:58.074Z,9.33
2018-03-11T00:36:25.698Z,9.32
2018-03-11T00:38:53.315Z,9.31
2018-03-11T00:41:20.926Z,9.26
2018-03-11T00:43:48.481Z,9.22
2018-03-11T00:46:16.037Z,9.18
2018-03-11T00:48:43.671Z,9.04
2018-03-11T00:51:11.295Z,9.10
2018-03-11T00:53:38.974Z,9.11
2018-03-11T00:56:06.583Z,9.10
2018-03-11T00:58:34.118Z,9.13
2018-03-11T01:01:01.743Z,9.13
2018-03-11T01:03:29.303Z,9.14
2018-03-11T01:05:56.918Z,9.11
2018-03-11T01:08:24.539Z,9.04
2018-03-11T01:10:52.094Z,9.00
2018-03-11T01:13:19.666Z,8.90
2018-03-11T01:15:47.227Z,8.89
2018-03-11T01:18:14.842Z,8.89
2018-03-11T01:20:42.406Z,8.90
2018-03-11T01:23:09.967Z,8.93
2018-03-11T01:25:37.538Z,8.98
2018-03-11T01:28:05.100Z,9.00
2018-03-11T01:30:32.770Z,8.97
2018-03-11T01:33:00.331Z,8.91
2018-03-11T01:35:27.898Z,8.92
2018-03-11T01:37:55.534Z,8.92
2018-03-11T01:40:23.094Z,8.91
2018-03-11T01:42:50.710Z,8.84
2018-03-11T01:45:18.270Z,8.79
2018-03-11T01:47:45.835Z,8.73
2018-03-11T01:50:13.406Z,8.74
2018-03-11T01:52:52.646Z,8.76
2018-03-11T01:55:20.284Z,8.80
2018-03-11T01:57:47.907Z,8.86
2018-03-11T02:00:15.587Z,8.84
2018-03-11T02:02:43.146Z,8.86
2018-03-11T02:05:10.715Z,8.92
2018-03-11T02:07:38.286Z,8.98
2018-03-11T02:10:05.842Z,8.95
2018-03-11T02:12:33.510Z,8.96
2018-03-11T02:15:01.164Z,9.02
2018-03-11T02:17:28.788Z,9.06
2018-03-11T02:19:56.419Z,9.08
2018-03-11T02:22:23.986Z,9.08
2018-03-11T02:24:51.605Z,9.06
2018-03-11T02:27:19.166Z,9.09
2018-03-11T02:29:46.796Z,9.01
2018-03-11T02:32:14.382Z,9.05
2018-03-11T02:34:41.951Z,9.09
2018-03-11T02:37:09.558Z,9.14
2018-03-11T02:39:37.122Z,9.16
2018-03-11T02:42:04.743Z,9.13
2018-03-11T02:44:32.318Z,9.10
2018-03-11T02:46:59.878Z,9.17
2018-03-11T02:49:27.490Z,9.17
2018-03-11T02:51:55.110Z,9.10
2018-03-11T02:54:22.680Z,9.09
2018-03-11T02:56:50.245Z,9.10
2018-03-11T02:59:17.809Z,9.10
2018-03-11T03:01:45.481Z,9.09
2018-03-11T03:04:13.099Z,9.10
2018-03-11T03:06:40.723Z,9.16
2018-03-11T03:09:08.304Z,9.22
2018-03-11T03:11:35.862Z,9.26
2018-03-11T03:14:03.476Z,9.26
2018-03-11T03:16:31.042Z,9.25
2018-03-11T03:18:58.671Z,9.25
2018-03-11T03:21:26.239Z,9.24
2018-03-11T03:23:53.798Z,9.21
2018-03-11T03:26:21.411Z,9.22
2018-03-11T03:28:48.973Z,9.21
2018-03-11T03:31:16.587Z,9.25
2018-03-11T03:33:44.158Z,9.17
2018-03-11T03:36:11.774Z,9.20
2018-03-11T03:38:39.382Z,9.18
2018-03-11T03:41:06.945Z,9.09
2018-03-11T03:43:34.524Z,9.02
2018-03-11T03:46:02.155Z,8.95
2018-03-11T03:48:29.718Z,8.87
2018-03-11T03:50:57.329Z,8.62
2018-03-11T03:53:24.890Z,8.49
2018-03-11T03:55:52.461Z,8.42
2018-03-11T03:58:20.031Z,8.39
2018-03-11T04:00:47.590Z,8.30
2018-03-11T04:03:15.205Z,8.20
2018-03-11T04:05:42.772Z,8.16
2018-03-11T04:08:10.337Z,8.09
2018-03-11T04:10:37.962Z,7.99
2018-03-11T04:13:05.583Z,7.91
2018-03-11T04:15:33.237Z,7.87
2018-03-11T04:18:00.859Z,7.86
2018-03-11T04:20:28.458Z,7.82
2018-03-11T04:22:56.083Z,7.76
2018-03-11T04:25:23.642Z,7.73
2018-03-11T04:27:51.334Z,7.64
2018-03-11T04:30:18.895Z,7.58
2018-03-11T04:32:46.467Z,7.52
2018-03-11T04:35:14.034Z,7.46
2018-03-11T04:37:41.664Z,7.38
2018-03-11T04:40:09.295Z,7.33
2018-03-11T04:42:36.866Z,7.24
2018-03-11T04:45:04.491Z,7.27
2018-03-11T04:47:32.123Z,7.24
2018-03-11T04:49:59.739Z,7.21
2018-03-11T04:52:27.360Z,7.22
2018-03-11T04:54:54.982Z,7.21
2018-03-11T04:57:22.547Z,7.19
2018-03-11T04:59:50.127Z,7.17
2018-03-11T05:02:17.689Z,7.09
2018-03-11T05:04:45.312Z,7.05
2018-03-11T05:07:12.879Z,7.05
2018-03-11T05:09:40.502Z,7.06
2018-03-11T05:12:08.127Z,7.10
2018-03-11T05:14:35.760Z,7.13
2018-03-11T05:17:03.386Z,7.11
2018-03-11T05:19:30.941Z,7.12
2018-03-11T05:21:58.558Z,7.18
2018-03-11T05:24:26.126Z,7.24
2018-03-11T05:26:53.691Z,7.55
2018-03-11T05:29:21.365Z,8.24
2018-03-11T05:31:48.926Z,8.50
2018-03-11T05:34:16.490Z,8.89
2018-03-11T05:36:44.068Z,9.54
2018-03-11T05:39:11.638Z,10.14
2018-03-11T05:41:40.029Z,10.67
2018-03-11T05:44:07.594Z,11.49
2018-03-11T05:46:35.161Z,12.06
2018-03-11T05:49:02.799Z,12.44
2018-03-11T05:51:30.424Z,13.09
2018-03-11T05:53:58.105Z,13.85
2018-03-11T05:56:25.679Z,14.42
2018-03-11T05:58:53.264Z,14.79
2018-03-11T06:01:20.839Z,15.36
2018-03-11T06:03:48.475Z,16.05
2018-03-11T06:06:16.159Z,16.89
2018-03-11T06:08:43.786Z,17.10
2018-03-11T06:11:11.354Z,16.87
2018-03-11T06:13:38.982Z,16.74
2018-03-11T06:16:06.603Z,17.09
2018-03-11T06:18:34.237Z,17.63
2018-03-11T06:21:01.872Z,18.27
2018-03-11T06:23:29.446Z,18.00
2018-03-11T06:25:57.054Z,17.55
2018-03-11T06:28:24.618Z,16.94
2018-03-11T06:30:52.233Z,16.58
2018-03-11T06:33:19.854Z,15.94
2018-03-11T06:35:47.475Z,15.73
2018-03-11T06:38:17.023Z,15.90
2018-03-11T06:40:44.582Z,16.22
2018-03-11T06:43:12.198Z,16.94
2018-03-11T06:45:39.783Z,17.79
2018-03-11T06:48:07.342Z,18.14
2018-03-11T06:50:34.913Z,17.98
2018-03-11T06:53:02.539Z,18.50
2018-03-11T06:55:30.166Z,19.01
2018-03-11T06:57:57.742Z,19.04
2018-03-11T07:00:25.362Z,19.46
2018-03-11T07:02:52.991Z,19.34
2018-03-11T07:05:20.557Z,19.62
2018-03-11T07:07:48.223Z,19.78
2018-03-11T07:10:15.783Z,19.77
2018-03-11T07:12:43.414Z,19.65
2018-03-11T07:15:11.048Z,19.53
